Time;durP1;ratioP1;P1;durP2;ratioP2;P2;SDS_P1;SDS_P2;PMS_P1;PMS_P2;Temp;Humidity;BMP_temperature;BMP_pressure;BME280_temperature;BME280_humidity;BME280_pressure;Samples;Min_cycle;Max_cycle;Signal;HPM_P1;HPM_P2
2021/10/28 00:15:54;;;;;;;9.43;3.22;;;12.10;58.70;;;;;;20799362;28;80890;-68
2021/10/28 00:25:56;;;;;;;10.40;3.80;;;12.00;59.10;;;;;;20798213;28;80734;-69
2021/10/28 00:36:03;;;;;;;6.88;3.38;;;11.80;59.30;;;;;;20799194;28;80024;-68
2021/10/28 00:46:05;;;;;;;9.23;3.53;;;11.50;60.00;;;;;;20810760;28;80692;-67
2021/10/28 00:56:07;;;;;;;10.35;3.28;;;11.50;60.10;;;;;;20810133;28;81023;-67
2021/10/28 01:06:10;;;;;;;11.98;3.35;;;11.40;60.20;;;;;;20809472;28;81836;-67
2021/10/28 01:16:13;;;;;;;7.93;3.35;;;11.30;60.60;;;;;;20809993;28;81881;-70
2021/10/28 01:26:17;;;;;;;8.35;4.07;;;11.20;60.70;;;;;;20835175;28;82175;-71
2021/10/28 01:36:25;;;;;;;5.03;3.30;;;11.10;61.20;;;;;;20831564;28;81866;-70
2021/10/28 01:46:30;;;;;;;10.32;3.75;;;10.90;61.40;;;;;;20868196;27;82076;-72
2021/10/28 01:56:32;;;;;;;6.40;3.70;;;10.70;61.80;;;;;;20890495;28;80877;-69
2021/10/28 02:06:37;;;;;;;8.98;3.55;;;10.80;61.90;;;;;;20890819;27;80727;-68
2021/10/28 02:16:43;;;;;;;6.30;3.45;;;10.90;62.00;;;;;;20889866;27;80775;-68
2021/10/28 02:26:50;;;;;;;11.27;4.60;;;10.60;62.40;;;;;;20887964;28;80834;-70
2021/10/28 02:36:57;;;;;;;9.25;3.92;;;10.50;62.80;;;;;;20888398;27;81637;-70
2021/10/28 02:47:03;;;;;;;7.25;4.07;;;10.40;63.00;;;;;;20885201;28;81085;-69
2021/10/28 02:57:08;;;;;;;6.63;3.90;;;10.30;63.30;;;;;;20876243;27;80740;-70
2021/10/28 03:07:23;;;;;;;6.60;3.53;;;10.20;63.60;;;;;;20884685;27;81734;-71
2021/10/28 03:28:02;;;;;;;10.65;3.97;;;10.10;64.20;;;;;;20884716;27;81075;-68
2021/10/28 03:38:24;;;;;;;9.35;3.95;;;10.10;64.30;;;;;;20884251;28;81677;-69
2021/10/28 04:29:40;;;;;;;10.80;3.80;;;10.10;63.80;;;;;;20854663;27;82003;-66
2021/10/28 04:39:45;;;;;;;11.48;3.72;;;10.10;63.90;;;;;;20873642;27;81050;-67
2021/10/28 04:49:52;;;;;;;10.13;3.90;;;10.10;64.00;;;;;;20881194;27;80604;-66
2021/10/28 04:59:58;;;;;;;12.38;4.72;;;10.10;63.50;;;;;;20879355;28;80624;-69
2021/10/28 05:10:03;;;;;;;8.90;4.47;;;9.90;63.90;;;;;;20879052;28;80966;-68
2021/10/28 05:20:06;;;;;;;12.45;4.25;;;10.00;64.00;;;;;;20880765;27;80669;-66
2021/10/28 05:30:10;;;;;;;13.02;4.05;;;10.10;63.80;;;;;;20877116;27;81648;-59
2021/10/28 05:40:13;;;;;;;9.07;4.50;;;10.20;63.70;;;;;;20882707;27;80865;-62
2021/10/28 05:50:19;;;;;;;13.43;5.82;;;10.20;63.90;;;;;;20875629;27;81878;-60
2021/10/28 06:00:23;;;;;;;16.27;5.45;;;10.20;64.00;;;;;;20877966;27;82346;-60
2021/10/28 06:10:34;;;;;;;10.10;5.53;;;10.20;64.10;;;;;;20873377;28;81915;-60
2021/10/28 06:20:37;;;;;;;14.20;5.20;;;10.10;64.10;;;;;;20875698;28;81798;-60
2021/10/28 06:30:40;;;;;;;11.35;5.10;;;10.00;64.30;;;;;;20876654;27;80913;-61
2021/10/28 06:41:02;;;;;;;12.77;4.45;;;9.90;64.70;;;;;;20875284;27;82871;-60
2021/10/28 06:51:24;;;;;;;19.90;4.60;;;9.70;65.10;;;;;;20874043;27;80935;-60
2021/10/28 07:12:27;;;;;;;16.70;5.50;;;9.50;65.80;;;;;;20939296;27;81239;-63
2021/10/28 07:33:36;;;;;;;14.65;5.97;;;9.60;66.20;;;;;;20934512;27;82853;-62
2021/10/28 08:05:10;;;;;;;20.95;8.02;;;10.40;64.90;;;;;;20925537;27;81935;-61
2021/10/28 08:36:31;;;;;;;16.20;7.35;;;12.70;58.20;;;;;;20772286;28;81305;-61
2021/10/28 08:46:45;;;;;;;24.38;8.55;;;13.40;56.30;;;;;;20879357;28;82124;-61
2021/10/28 09:28:48;;;;;;;19.75;9.43;;;14.90;53.20;;;;;;20874193;28;81906;-61
2021/10/28 09:59:35;;;;;;;10.98;6.18;;;20.10;41.40;;;;;;20872571;27;81024;-61
2021/10/28 10:09:39;;;;;;;21.95;6.63;;;29.10;27.30;;;;;;20874347;27;81390;-61
2021/10/28 10:19:49;;;;;;;78.55;15.13;;;33.10;23.00;;;;;;20870709;27;81393;-63
2021/10/28 12:55:53;;;;;;;11.85;3.17;;;32.20;23.30;;;;;;20892047;27;80647;-63
2021/10/28 13:58:17;;;;;;;4.88;2.42;;;34.80;19.80;;;;;;20888525;27;80400;-61
2021/10/28 16:23:08;;;;;;;6.38;1.90;;;21.40;29.50;;;;;;20811115;28;80762;-62
2021/10/28 16:33:15;;;;;;;9.00;3.75;;;21.00;31.10;;;;;;20807482;28;81990;-63
2021/10/28 16:43:18;;;;;;;4.38;1.83;;;20.70;31.90;;;;;;20809190;28;81801;-62
2021/10/28 16:53:21;;;;;;;7.00;2.28;;;20.30;32.50;;;;;;20809207;28;80122;-62
2021/10/28 17:03:23;;;;;;;;;;;20.10;32.90;;;;;;20809804;28;82179;-62
2021/10/28 17:13:26;;;;;;;5.32;2.42;;;19.80;33.30;;;;;;20830487;28;81828;-62
2021/10/28 17:23:40;;;;;;;7.35;2.22;;;19.50;34.20;;;;;;20806259;28;80286;-61
2021/10/28 17:33:42;;;;;;;4.75;2.47;;;19.30;35.30;;;;;;20823590;27;81311;-73
2021/10/28 17:43:51;;;;;;;5.90;2.40;;;19.00;35.70;;;;;;20839050;27;81974;-72
2021/10/28 17:53:53;;;;;;;7.07;3.72;;;18.80;36.70;;;;;;20825617;27;80904;-71
2021/10/28 18:03:59;;;;;;;8.57;3.30;;;18.50;38.00;;;;;;20804747;28;81570;-68
2021/10/28 18:14:01;;;;;;;13.82;4.40;;;18.30;39.10;;;;;;20803112;28;80600;-67
2021/10/28 18:24:02;;;;;;;11.48;4.63;;;18.10;40.20;;;;;;20815728;27;80693;-69
2021/10/28 18:34:06;;;;;;;13.73;5.30;;;17.80;41.20;;;;;;20804401;28;81705;-70
2021/10/28 18:44:10;;;;;;;13.43;5.72;;;17.60;42.00;;;;;;20802318;28;80018;-73
2021/10/28 18:54:14;;;;;;;11.30;4.32;;;17.50;42.70;;;;;;20879484;27;80791;-70
2021/10/28 19:04:17;;;;;;;11.60;3.20;;;17.40;43.00;;;;;;20874746;27;80536;-70
2021/10/28 19:14:20;;;;;;;13.20;3.90;;;17.30;42.30;;;;;;20874206;27;81084;-72
2021/10/28 19:24:23;;;;;;;;;;;17.50;41.80;;;;;;20846851;27;81477;-72
2021/10/28 19:34:27;;;;;;;11.98;4.13;;;17.40;41.70;;;;;;20891569;27;82278;-72
2021/10/28 19:54:53;;;;;;;17.73;4.30;;;17.20;42.60;;;;;;20871909;28;81914;-73
2021/10/28 20:15:27;;;;;;;9.20;5.15;;;17.00;43.80;;;;;;20884800;28;81401;-72
2021/10/28 20:25:28;;;;;;;;;;;16.90;44.70;;;;;;20881317;27;81177;-71
2021/10/28 20:45:50;;;;;;;9.68;3.88;;;16.90;44.00;;;;;;20868956;27;81164;-70
2021/10/28 20:55:51;;;;;;;8.35;4.13;;;16.70;44.90;;;;;;20880988;28;81284;-72
2021/10/28 21:05:52;;;;;;;10.43;4.68;;;16.60;45.20;;;;;;20875704;28;81716;-72
2021/10/28 21:15:54;;;;;;;23.67;7.97;;;16.60;45.80;;;;;;20879487;28;81624;-71
2021/10/28 21:25:58;;;;;;;10.63;3.53;;;16.50;46.10;;;;;;20874722;27;81441;-71
2021/10/28 21:36:03;;;;;;;14.95;7.28;;;16.50;46.10;;;;;;20885415;27;80700;-71
2021/10/28 21:46:05;;;;;;;10.43;4.70;;;16.50;46.30;;;;;;20889611;28;80110;-70
2021/10/28 22:06:46;;;;;;;10.57;5.00;;;16.40;46.60;;;;;;20846758;28;80102;-69
2021/10/28 22:26:56;;;;;;;11.65;5.45;;;16.30;47.30;;;;;;20833256;27;80593;-71
2021/10/28 22:37:08;;;;;;;12.68;5.82;;;16.20;47.70;;;;;;20874951;27;81056;-72
2021/10/28 22:47:10;;;;;;;12.32;6.00;;;16.20;48.00;;;;;;20802060;28;81763;-73
2021/10/28 22:57:22;;;;;;;15.10;6.82;;;16.10;48.10;;;;;;20802338;28;82210;-72
2021/10/28 23:07:50;;;;;;;11.83;6.47;;;16.00;48.70;;;;;;20802018;28;80036;-71
2021/10/28 23:28:12;;;;;;;11.45;5.45;;;15.90;48.80;;;;;;20801888;28;81836;-70
2021/10/28 23:38:14;;;;;;;13.13;5.85;;;15.90;48.50;;;;;;20804110;28;80721;-69
2021/10/28 23:48:15;;;;;;;10.02;4.57;;;15.90;48.40;;;;;;20813496;28;81076;-72
2021/10/28 23:58:17;;;;;;;14.52;5.50;;;15.90;48.70;;;;;;20814198;28;80648;-72
